.
WxDataArchive / Data Records for 2006-07-08
2006-07-07 July 2006 2006-07-09

Data Records for Saturday, 08 July 2006

Time	Temp	Chill	HIndex	Humid	Dewpt	 Wind 	HiWind	WindDir	Rain 	Barom 
-----	----	-----	------	-----	-----	------	------	-------	-----	----- 
00:00	62.4	62.4	62.4	77	55.1	0	0	---	0.00	30.230 
00:05	62.3	62.3	62.3	77	55.0	0	0	---	0.00	30.230 
00:10	62.1	62.1	62.1	77	54.8	0	0	---	0.00	30.230 
00:15	62.0	62.0	62.0	77	54.7	0	0	---	0.00	30.227 
00:20	61.8	61.8	61.8	78	54.9	0	0	---	0.00	30.227 
00:25	61.6	61.6	61.6	79	55.0	0	0	---	0.00	30.227 
00:30	61.3	61.3	61.3	79	54.7	0	0	---	0.00	30.222 
00:35	61.2	61.2	61.2	80	55.0	0	0	---	0.00	30.222 
00:40	61.0	61.0	61.0	80	54.8	0	0	---	0.00	30.222 
00:45	60.9	60.9	60.9	80	54.7	0	0	---	0.00	30.222 
00:50	60.7	60.7	60.7	81	54.8	0	0	---	0.00	30.222 
00:55	60.4	60.4	60.4	82	54.9	0	0	---	0.00	30.222 
01:00	60.2	60.2	60.2	83	55.0	0	0	---	0.00	30.220 
01:05	60.1	60.1	60.1	83	54.9	0	0	---	0.00	30.220 
01:10	59.9	59.9	59.9	83	54.7	0	0	---	0.00	30.220 
01:15	59.8	59.8	59.8	84	55.0	0	0	---	0.00	30.215 
01:20	59.6	59.6	59.6	85	55.1	0	0	---	0.00	30.215 
01:25	59.5	59.5	59.5	85	55.0	0	0	---	0.00	30.215 
01:30	59.3	59.3	59.3	85	54.8	0	0	---	0.00	30.215 
01:35	59.3	59.3	59.3	85	54.8	0	0	---	0.00	30.215 
01:40	59.2	59.2	59.2	85	54.7	0	0	---	0.00	30.215 
01:45	59.2	59.2	59.2	85	54.7	0	0	---	0.00	30.215 
01:50	59.0	59.0	59.0	86	54.8	0	0	---	0.00	30.215 
01:55	58.9	58.9	58.9	86	54.7	0	0	---	0.00	30.215 
02:00	58.7	58.7	58.7	86	54.5	0	0	---	0.00	30.216 
02:05	58.7	58.7	58.7	86	54.5	0	0	---	0.00	30.216 
02:10	58.6	58.6	58.6	87	54.7	0	0	---	0.00	30.216 
02:15	58.4	58.4	58.4	87	54.5	0	0	---	0.00	30.217 
02:20	58.3	58.3	58.3	87	54.4	0	0	---	0.00	30.217 
02:25	58.1	58.1	58.1	87	54.2	0	0	---	0.00	30.217 
02:30	58.1	58.1	58.1	88	54.6	0	0	---	0.00	30.216 
02:35	58.0	58.0	58.0	88	54.5	0	0	---	0.00	30.216 
02:40	57.8	57.8	57.8	88	54.3	0	0	---	0.00	30.216 
02:45	57.6	57.6	57.6	88	54.1	0	0	---	0.00	30.216 
02:50	57.5	57.5	57.5	88	54.0	0	0	---	0.00	30.216 
02:55	57.5	57.5	57.5	89	54.3	0	0	---	0.00	30.216 
03:00	57.3	57.3	57.3	89	54.1	0	0	---	0.00	30.211 
03:05	57.3	57.3	57.3	89	54.1	0	0	---	0.00	30.211 
03:10	57.2	57.2	57.2	89	54.0	0	0	---	0.00	30.211 
03:15	57.0	57.0	57.0	89	53.8	0	0	---	0.00	30.214 
03:20	57.0	57.0	57.0	89	53.8	0	0	---	0.00	30.214 
03:25	56.9	56.9	56.9	89	53.7	0	0	---	0.00	30.214 
03:30	56.9	56.9	56.9	89	53.7	0	0	---	0.00	30.211 
03:35	56.7	56.7	56.7	90	53.8	0	0	---	0.00	30.211 
03:40	56.7	56.7	56.7	90	53.8	0	0	---	0.00	30.211 
03:45	56.7	56.7	56.7	90	53.8	0	0	---	0.00	30.210 
03:50	56.6	56.6	56.6	90	53.7	0	0	---	0.00	30.210 
03:55	56.5	56.5	56.5	90	53.6	0	0	---	0.00	30.210 
04:00	56.3	56.3	56.3	90	53.4	0	0	---	0.00	30.213 
04:05	56.3	56.3	56.3	91	53.7	0	0	---	0.00	30.213 
04:10	56.2	56.2	56.2	90	53.3	0	0	---	0.00	30.213 
04:15	56.0	56.0	56.0	90	53.1	0	0	---	0.00	30.211 
04:20	56.0	56.0	56.0	91	53.4	0	0	---	0.00	30.211 
04:25	55.9	55.9	55.9	91	53.3	0	0	---	0.00	30.211 
04:30	55.9	55.9	55.9	91	53.3	0	0	---	0.00	30.214 
04:35	55.7	55.7	55.7	91	53.1	0	0	---	0.00	30.214 
04:40	55.7	55.7	55.7	91	53.1	0	0	---	0.00	30.214 
04:45	55.6	55.6	55.6	91	53.0	0	0	---	0.00	30.212 
04:50	55.4	55.4	55.4	91	52.8	0	0	---	0.00	30.212 
04:55	55.3	55.3	55.3	91	52.7	0	0	---	0.00	30.212 
05:00	55.3	55.3	55.3	92	53.0	0	0	---	0.00	30.217 
05:05	55.3	55.3	55.3	92	53.0	0	0	---	0.00	30.217 
05:10	55.3	55.3	55.3	92	53.0	0	0	---	0.00	30.217 
05:15	55.3	55.3	55.3	92	53.0	0	0	---	0.00	30.219 
05:20	55.1	55.1	55.1	92	52.8	0	0	---	0.00	30.219 
05:25	55.1	55.1	55.1	92	52.8	0	0	---	0.00	30.219 
05:30	55.1	55.1	55.1	92	52.8	0	0	---	0.00	30.220 
05:35	55.1	55.1	55.1	92	52.8	0	0	---	0.00	30.220 
05:40	55.0	55.0	55.0	92	52.7	0	0	---	0.00	30.220 
05:45	54.8	54.8	54.8	92	52.5	0	0	---	0.00	30.219 
05:50	54.8	54.8	54.8	92	52.5	0	0	---	0.00	30.219 
05:55	54.8	54.8	54.8	92	52.5	0	0	---	0.00	30.219 
06:00	54.7	54.7	54.7	92	52.4	0	0	---	0.00	30.219 
06:05	54.7	54.7	54.7	92	52.4	0	0	---	0.00	30.219 
06:10	54.5	54.5	54.5	92	52.2	0	0	---	0.00	30.219 
06:15	54.5	54.5	54.5	92	52.2	0	0	---	0.00	30.218 
06:20	54.5	54.5	54.5	92	52.2	0	0	---	0.00	30.218 
06:25	54.5	54.5	54.5	92	52.2	0	0	---	0.00	30.218 
06:30	54.4	54.4	54.4	92	52.1	0	0	---	0.00	30.216 
06:35	54.2	54.2	54.2	92	51.9	0	0	---	0.00	30.216 
06:40	54.2	54.2	54.2	93	52.2	0	0	---	0.00	30.216 
06:45	54.4	54.4	54.4	93	52.4	0	0	---	0.00	30.218 
06:50	54.4	54.4	54.4	93	52.4	0	0	---	0.00	30.218 
06:55	54.5	54.5	54.5	93	52.5	0	0	---	0.00	30.218 
07:00	54.7	54.7	54.7	93	52.7	0	0	---	0.00	30.217 
07:05	54.8	54.8	54.8	93	52.8	0	0	---	0.00	30.217 
07:10	55.1	55.1	55.1	93	53.1	0	0	---	0.00	30.217 
07:15	55.3	55.3	55.3	94	53.6	0	0	---	0.00	30.213 
07:20	55.7	55.7	55.7	94	54.0	0	0	---	0.00	30.213 
07:25	56.0	56.0	56.0	94	54.3	0	0	---	0.00	30.213 
07:30	56.6	56.6	56.6	94	54.9	0	0	---	0.00	30.217 
07:35	57.3	57.3	57.3	94	55.6	0	0	---	0.00	30.217 
07:40	58.4	58.4	58.4	93	56.4	0	0	---	0.00	30.217 
07:45	59.0	59.0	59.0	91	56.4	0	0	---	0.00	30.215 
07:50	59.9	59.9	59.9	88	56.3	0	0	---	0.00	30.215 
07:55	60.7	60.7	60.7	85	56.2	0	0	---	0.00	30.215 
08:00	61.8	61.8	61.8	81	55.9	0	1	112	0.00	30.214 
08:05	63.1	63.1	63.1	79	56.5	0	0	---	0.00	30.214 
08:10	63.9	63.9	63.9	77	56.5	0	1	112	0.00	30.214 
08:15	64.7	64.7	64.7	77	57.3	0	1	112	0.00	30.218 
08:20	66.1	66.1	66.1	72	56.8	0	0	---	0.00	30.218 
08:25	67.4	67.4	67.4	70	57.3	0	0	---	0.00	30.218 
08:30	68.1	68.1	68.1	70	57.9	0	0	---	0.00	30.217 
08:35	68.6	68.6	68.6	69	58.0	0	1	112	0.00	30.217 
08:40	69.3	69.3	69.3	66	57.4	0	1	112	0.00	30.217 
08:45	70.1	70.1	70.1	64	57.3	0	1	112	0.00	30.212 
08:50	70.9	70.9	70.9	66	59.0	0	1	112	0.00	30.212 
08:55	71.5	71.5	71.5	63	58.2	0	1	112	0.00	30.212 
09:00	72.1	72.1	72.1	64	59.2	0	2	112	0.00	30.209 
09:05	72.7	72.7	72.7	62	58.9	0	1	112	0.00	30.209 
09:10	73.2	73.2	73.2	59	58.0	0	2	112	0.00	30.209 
09:15	73.7	73.7	73.7	57	57.5	0	2	112	0.00	30.210 
09:20	73.7	73.7	73.7	57	57.5	0	2	135	0.00	30.210 
09:25	73.9	73.9	73.9	57	57.7	1	3	135	0.00	30.210 
09:30	74.0	74.0	74.0	56	57.3	1	2	112	0.00	30.210 
09:35	74.0	74.0	74.0	56	57.3	1	3	225	0.00	30.210 
09:40	74.0	74.0	74.0	55	56.8	1	2	248	0.00	30.210 
09:45	74.2	74.2	74.2	54	56.5	0	4	248	0.00	30.208 
09:50	74.7	74.7	74.7	55	57.4	0	4	90	0.00	30.208 
09:55	75.3	75.3	77.7	53	57.0	1	2	90	0.00	30.208 
10:00	75.6	75.6	77.9	51	56.2	1	4	90	0.00	30.203 
10:05	75.8	75.8	78.0	53	57.4	1	3	135	0.00	30.203 
10:10	75.8	75.8	78.0	50	55.8	1	3	270	0.00	30.203 
10:15	76.0	76.0	78.1	52	57.1	1	3	45	0.00	30.209 
10:20	76.3	76.3	78.2	49	55.7	2	4	112	0.00	30.209 
10:25	76.3	76.3	78.2	52	57.4	1	6	112	0.00	30.209 
10:30	76.5	76.5	78.3	51	57.0	0	3	90	0.00	30.199 
10:35	76.8	76.8	78.5	51	57.3	0	2	225	0.00	30.199 
10:40	77.0	77.0	78.5	48	55.8	1	4	90	0.00	30.199 
10:45	77.2	77.2	78.5	45	54.2	1	3	202	0.00	30.197 
10:50	77.0	77.0	78.5	48	55.8	1	3	248	0.00	30.197 
10:55	77.4	77.4	78.8	49	56.7	1	4	112	0.00	30.197 
11:00	77.9	77.9	78.9	45	54.8	1	3	112	0.00	30.193 
11:05	77.9	77.9	78.8	43	53.6	1	3	270	0.00	30.193 
11:10	78.1	78.1	79.0	44	54.4	2	6	45	0.00	30.193 
11:15	77.7	77.7	78.8	45	54.6	2	6	90	0.00	30.186 
11:20	77.9	77.9	79.0	47	56.0	1	4	270	0.00	30.186 
11:25	78.1	78.1	79.0	44	54.4	2	5	248	0.00	30.186 
11:30	77.9	77.9	78.8	43	53.6	1	6	248	0.00	30.182 
11:35	78.6	78.6	79.3	44	54.8	1	2	248	0.00	30.182 
11:40	79.0	79.0	79.5	43	54.6	1	4	248	0.00	30.182 
11:45	79.2	79.2	79.5	42	54.1	2	5	248	0.00	30.183 
11:50	79.0	79.0	79.5	43	54.6	2	4	90	0.00	30.183 
11:55	79.4	79.4	79.7	42	54.3	1	4	90	0.00	30.183 
12:00	79.6	79.6	79.7	41	53.8	1	5	270	0.00	30.181 
12:05	79.6	79.6	79.7	41	53.8	1	3	248	0.00	30.181 
12:10	79.8	79.8	80.0	42	54.6	1	3	112	0.00	30.181 
12:15	79.9	79.9	79.8	39	52.7	2	5	248	0.00	30.178 
12:20	79.8	79.8	80.0	43	55.3	2	3	248	0.00	30.178 
12:25	79.4	79.4	79.5	40	52.9	1	3	292	0.00	30.178 
12:30	78.8	78.8	79.2	40	52.4	1	3	292	0.00	30.170 
12:35	79.0	79.0	79.5	43	54.6	2	4	270	0.00	30.170 
12:40	79.4	79.4	79.6	41	53.6	2	5	248	0.00	30.170 
12:45	79.9	79.9	80.1	43	55.4	1	2	225	0.00	30.167 
12:50	80.3	80.3	80.2	41	54.4	1	4	158	0.00	30.167 
12:55	80.9	80.9	80.8	42	55.6	1	4	112	0.00	30.167 
13:00	80.9	80.9	80.3	37	52.2	2	4	248	0.00	30.162 
13:05	80.7	80.7	80.4	40	54.1	1	4	248	0.00	30.162 
13:10	81.1	81.1	80.6	39	53.8	2	5	248	0.00	30.162 
13:15	80.9	80.9	80.6	40	54.3	2	5	112	0.00	30.159 
13:20	80.9	80.9	80.8	42	55.6	2	5	90	0.00	30.159 
13:25	80.7	80.7	80.6	42	55.4	2	4	90	0.00	30.159 
13:30	80.7	80.7	80.3	39	53.4	2	5	248	0.00	30.151 
13:35	80.9	80.9	80.7	41	55.0	2	6	225	0.00	30.151 
13:40	80.9	80.9	81.0	44	56.9	2	5	248	0.00	30.151 
13:45	81.1	81.1	80.4	37	52.3	1	4	270	0.00	30.144 
13:50	81.1	81.1	80.9	42	55.8	2	5	248	0.00	30.144 
13:55	80.9	80.9	80.5	39	53.6	2	4	248	0.00	30.144 
14:00	81.1	81.1	80.8	41	55.1	1	5	112	0.00	30.135 
14:05	80.9	80.9	80.6	40	54.3	1	2	112	0.00	30.135 
14:10	81.1	81.1	80.5	38	53.1	1	2	0	0.00	30.135 
14:15	81.6	81.6	81.0	39	54.2	2	4	248	0.00	30.130 
14:20	81.8	81.8	81.1	38	53.7	1	3	270	0.00	30.130 
14:25	82.0	82.0	80.9	35	51.6	3	7	248	0.00	30.130 
14:30	82.0	82.0	81.2	38	53.9	2	4	270	0.00	30.123 
14:35	82.4	82.4	81.9	41	56.3	1	5	112	0.00	30.123 
14:40	82.4	82.4	81.7	39	54.9	2	5	292	0.00	30.123 
14:45	82.0	82.0	81.6	41	55.9	1	4	270	0.00	30.122 
14:50	82.0	82.0	81.3	39	54.6	1	4	248	0.00	30.122 
14:55	81.8	81.8	81.2	39	54.4	2	5	248	0.00	30.122 
15:00	81.4	81.4	80.8	38	53.3	2	5	90	0.00	30.120 
15:05	81.1	81.1	80.6	39	53.8	2	5	248	0.00	30.120 
15:10	81.4	81.4	80.7	37	52.6	2	9	270	0.00	30.120 
15:15	81.6	81.6	81.0	39	54.2	1	3	22	0.00	30.112 
15:20	81.8	81.8	81.1	38	53.7	2	6	22	0.00	30.112 
15:25	82.0	82.0	81.3	39	54.6	2	4	270	0.00	30.112 
15:30	81.6	81.6	81.2	41	55.6	1	4	90	0.00	30.107 
15:35	82.0	82.0	81.8	43	57.3	1	6	270	0.00	30.107 
15:40	82.2	82.2	81.5	39	54.7	2	6	90	0.00	30.107 
15:45	82.4	82.4	81.7	39	54.9	2	4	270	0.00	30.104 
15:50	82.4	82.4	81.7	39	54.9	1	4	270	0.00	30.104 
15:55	82.6	82.6	82.0	40	55.8	1	4	270	0.00	30.104 
16:00	82.8	82.8	82.2	40	56.0	1	3	135	0.00	30.093 
16:05	82.8	82.8	81.7	36	53.1	2	3	270	0.00	30.093 
16:10	82.4	82.4	81.3	36	52.7	2	5	270	0.00	30.093 
16:15	82.4	82.4	81.3	36	52.7	2	7	112	0.00	30.089 
16:20	82.4	82.4	81.4	37	53.5	2	6	270	0.00	30.089 
16:25	82.8	82.8	81.8	37	53.8	1	5	112	0.00	30.089 
16:30	82.8	82.8	81.7	36	53.1	2	5	248	0.00	30.083 
16:35	82.4	82.4	81.2	35	52.0	1	3	292	0.00	30.083 
16:40	82.8	82.8	81.7	36	53.1	1	4	248	0.00	30.083 
16:45	83.0	83.0	81.5	33	50.9	2	5	248	0.00	30.076 
16:50	82.8	82.8	81.8	37	53.8	1	4	248	0.00	30.076 
16:55	82.0	82.0	81.2	38	53.9	2	4	90	0.00	30.076 
17:00	81.6	81.6	81.1	40	54.9	2	6	112	0.00	30.074 
17:05	82.2	82.2	81.4	38	54.0	2	6	68	0.00	30.074 
17:10	82.6	82.6	81.6	37	53.7	2	6	248	0.00	30.074 
17:15	82.8	82.8	81.7	36	53.1	1	6	248	0.00	30.065 
17:20	82.4	82.4	81.2	35	52.0	2	6	248	0.00	30.065 
17:25	82.4	82.4	81.2	35	52.0	1	5	270	0.00	30.065 
17:30	82.8	82.8	81.6	35	52.3	1	3	112	0.00	30.061 
17:35	83.0	83.0	81.6	34	51.7	1	7	248	0.00	30.061 
17:40	83.0	83.0	81.8	36	53.3	2	4	248	0.00	30.061 
17:45	82.6	82.6	81.5	36	52.9	1	2	248	0.00	30.059 
17:50	82.2	82.2	81.2	36	52.6	1	3	248	0.00	30.059 
17:55	81.4	81.4	80.7	37	52.6	1	3	248	0.00	30.059 
18:00	81.2	81.2	80.5	37	52.4	1	3	112	0.00	30.061 
18:05	80.7	80.7	80.3	39	53.4	2	5	90	0.00	30.061 
18:10	80.7	80.7	80.5	41	54.8	1	4	68	0.00	30.061 
18:15	80.5	80.5	80.2	39	53.2	1	3	248	0.00	30.059 
18:20	80.7	80.7	80.2	37	52.0	1	4	292	0.00	30.059 
18:25	80.7	80.7	80.2	38	52.7	1	4	248	0.00	30.059 
18:30	80.9	80.9	80.5	39	53.6	1	3	248	0.00	30.052 
18:35	80.7	80.7	80.3	39	53.4	2	5	248	0.00	30.052 
18:40	80.3	80.3	80.1	39	53.1	2	4	248	0.00	30.052 
18:45	80.3	80.3	80.2	41	54.4	0	3	248	0.00	30.048 
18:50	80.3	80.3	80.0	38	52.4	1	5	248	0.00	30.048 
18:55	80.3	80.3	80.1	39	53.1	2	6	248	0.00	30.048 
19:00	80.1	80.1	79.9	39	52.9	1	4	248	0.00	30.046 
19:05	79.9	79.9	79.9	40	53.4	1	3	248	0.00	30.046 
19:10	79.9	79.9	79.8	39	52.7	1	3	248	0.00	30.046 
19:15	79.8	79.8	79.7	39	52.6	1	6	248	0.00	30.039 
19:20	79.2	79.2	79.4	40	52.8	2	4	248	0.00	30.039 
19:25	78.8	78.8	79.2	41	53.1	0	2	248	0.00	30.039 
19:30	78.6	78.6	79.1	41	52.9	0	2	248	0.00	30.041 
19:35	78.6	78.6	79.2	43	54.2	0	3	248	0.00	30.041 
19:40	78.8	78.8	79.2	41	53.1	1	3	248	0.00	30.041 
19:45	79.0	79.0	79.4	41	53.3	1	3	248	0.00	30.039 
19:50	79.0	79.0	79.4	42	53.9	1	3	248	0.00	30.039 
19:55	78.8	78.8	79.2	41	53.1	1	4	248	0.00	30.039 
20:00	78.6	78.6	79.2	43	54.2	1	2	248	0.00	30.038 
20:05	78.5	78.5	79.1	42	53.5	1	2	248	0.00	30.038 
20:10	78.3	78.3	79.0	42	53.3	0	2	270	0.00	30.038 
20:15	78.1	78.1	78.9	43	53.8	0	1	270	0.00	30.028 
20:20	77.9	77.9	78.8	43	53.6	0	1	270	0.00	30.028 
20:25	77.6	77.6	78.7	44	53.9	0	1	270	0.00	30.028 
20:30	77.0	77.0	78.4	44	53.4	0	3	270	0.00	30.025 
20:35	76.7	76.7	78.3	45	53.7	0	1	270	0.00	30.025 
20:40	76.5	76.5	78.2	46	54.2	0	2	270	0.00	30.025 
20:45	76.1	76.1	78.0	46	53.8	0	1	270	0.00	30.025 
20:50	75.8	75.8	77.9	47	54.1	0	0	---	0.00	30.025 
20:55	75.4	75.4	77.8	48	54.3	0	1	270	0.00	30.025 
21:00	74.9	74.9	74.9	48	53.9	0	1	270	0.00	30.025 
21:05	74.6	74.6	74.6	49	54.2	0	0	---	0.00	30.025 
21:10	74.2	74.2	74.2	51	54.9	0	0	---	0.00	30.025 
21:15	73.7	73.7	73.7	51	54.4	0	0	---	0.00	30.019 
21:20	73.3	73.3	73.3	51	54.1	0	0	---	0.00	30.019 
21:25	72.8	72.8	72.8	53	54.7	0	0	---	0.00	30.019 
21:30	72.3	72.3	72.3	54	54.7	0	0	---	0.00	30.021 
21:35	71.8	71.8	71.8	55	54.7	0	0	---	0.00	30.021 
21:40	71.6	71.6	71.6	56	55.1	0	0	---	0.00	30.021 
21:45	71.3	71.3	71.3	57	55.3	0	0	---	0.00	30.026 
21:50	70.9	70.9	70.9	57	54.9	0	0	---	0.00	30.026 
21:55	70.4	70.4	70.4	58	54.9	0	0	---	0.00	30.026 
22:00	70.1	70.1	70.1	59	55.1	0	0	---	0.00	30.026 
22:05	69.9	69.9	69.9	60	55.4	0	0	---	0.00	30.026 
22:10	69.8	69.8	69.8	60	55.3	0	0	---	0.00	30.026 
22:15	69.6	69.6	69.6	61	55.5	0	0	---	0.00	30.026 
22:20	69.3	69.3	69.3	61	55.3	0	0	---	0.00	30.026 
22:25	69.3	69.3	69.3	62	55.7	0	0	---	0.00	30.026 
22:30	69.1	69.1	69.1	62	55.5	0	0	---	0.00	30.028 
22:35	68.8	68.8	68.8	63	55.7	0	0	---	0.00	30.028 
22:40	68.6	68.6	68.6	64	55.9	0	0	---	0.00	30.028 
22:45	68.3	68.3	68.3	65	56.1	0	0	---	0.00	30.026 
22:50	68.1	68.1	68.1	65	55.9	0	0	---	0.00	30.026 
22:55	67.9	67.9	67.9	66	56.1	0	0	---	0.00	30.026 
23:00	67.8	67.8	67.8	66	56.0	0	0	---	0.00	30.023 
23:05	67.6	67.6	67.6	66	55.8	0	0	---	0.00	30.023 
23:10	67.6	67.6	67.6	67	56.2	0	0	---	0.00	30.023 
23:15	67.4	67.4	67.4	67	56.1	0	0	---	0.00	30.021 
23:20	67.3	67.3	67.3	68	56.4	0	0	---	0.00	30.021 
23:25	67.1	67.1	67.1	68	56.2	0	0	---	0.00	30.021 
23:30	66.8	66.8	66.8	70	56.7	0	0	---	0.00	30.017 
23:35	66.6	66.6	66.6	70	56.5	0	0	---	0.00	30.017 
23:40	66.3	66.3	66.3	70	56.2	0	0	---	0.00	30.017 
23:45	66.1	66.1	66.1	72	56.8	0	0	---	0.00	30.010 
23:50	66.0	66.0	66.0	73	57.1	0	0	---	0.00	30.010 
23:55	65.8	65.8	65.8	73	56.9	0	0	---	0.00	30.010 

CoCoRaHS
IN-AL-39
A2 Web Hosting
Creative Commons License
GoDaddy
Look for:

loaded 2017-12-11 06:53:35 • last modified 2010-11-18 10:43:29
Privacy PolicyDisclaimer
• wx.awcolley.com is powered by PmWiki v.2002016 •
• all content (unless otherwise noted) © 2017 A W Colley